Portada
METAR-TAF:

METAR-TAF

Aeroports :

Mersing, Malàisia

latitud: 02-23-00N, longitud: 103-51-34E, altitud: 3 m

Observació

L'informe es va fer fa 1 hora i 0 minuts, a les 18:00 UTC
Vent 3 kt del Nord-Oest, variant entre Oest/Nord-Oest i Nord-Est
Temperatura 27°C
Humitat 84%
Pressió 1010 hPa

METAR: WMAU 291800Z AUTO 32003KT 290V040 //// // ////// 27/24 Q1010

Hora: 03:00 (19:00 UTC)


TAF: manca

Observacions i pronòstics meteorològics de més de 4000 aeroports (METAR i TAF).

Les estacions disponibles són els punts grocs i vermells al mapa.

Posi el ratolí al punt desitjat per veure el nom de l'estació.

Feu clic per veure les observacions i els pronòstics meteorològics.

Per canviar el mapa: feu clic els botons verds amb una creu de color negre per apropar; al botó verd amb un guió per allunyar la imatge; o en les fletxes verdes per a mapes adjacents.


METAR-TAF: